Terminal Aerodrome Forecast
Issued by NWS

Home | Current Version | Previous Version | Text Only | Print | Product List | Glossary Off
Versions: 1 2 3 4 5 6 7 8 9 10 11 12 13 14 15 16 17 18

000
FTUS43 KFGF 221546 AAA
TAFBJI
TAF AMD
KBJI 221546Z 2216/2312 35005KT P6SM OVC050
      TEMPO 2216/2218 P6SM -RA OVC008
     FM221800 02006KT P6SM -RASN OVC003
     FM230000 35010KT P6SM OVC010=

USA.gov is the U.S. government's official web portal to all federal, state and local government web resources and services.